Time;durP1;ratioP1;P1;durP2;ratioP2;P2;SDS_P1;SDS_P2;PMS_P1;PMS_P2;Temp;Humidity;BMP_temperature;BMP_pressure;BME280_temperature;BME280_humidity;BME280_pressure;Samples;Min_cycle;Max_cycle;Signal;HPM_P1;HPM_P2
2022/04/09 00:01:19;;;;;;;;;;;1.00;99.90;;;;;;5097776;28;19965;-66
2022/04/09 00:03:46;;;;;;;;;;;1.00;99.90;;;;;;5106422;28;19959;-66
2022/04/09 00:06:12;;;;;;;;;;;1.00;99.90;;;;;;5105295;28;20071;-66
2022/04/09 00:08:39;;;;;;;;;;;1.00;99.90;;;;;;5100443;28;20002;-66
2022/04/09 00:11:09;;;;;;;;;;;1.00;99.90;;;;;;5097850;28;19959;-66
2022/04/09 00:13:36;;;;;;;;;;;1.00;99.90;;;;;;5086285;28;20348;-66
2022/04/09 00:16:06;;;;;;;;;;;1.00;99.90;;;;;;5098306;28;19920;-66
2022/04/09 00:18:32;;;;;;;;;;;1.00;99.90;;;;;;5109056;28;20011;-66
2022/04/09 00:21:02;;;;;;;;;;;1.00;99.90;;;;;;5108904;28;19951;-66
2022/04/09 00:23:28;;;;;;;;;;;1.00;99.90;;;;;;5091827;28;19924;-66
2022/04/09 00:25:55;;;;;;;;;;;1.00;99.90;;;;;;5090144;28;19952;-67
2022/04/09 00:28:22;;;;;;;;;;;1.00;99.90;;;;;;5102177;28;19959;-66
2022/04/09 00:30:51;;;;;;;;;;;1.00;99.90;;;;;;5096775;28;19919;-66
2022/04/09 00:33:18;;;;;;;;;;;1.00;99.90;;;;;;5100787;28;20358;-66
2022/04/09 00:35:48;;;;;;;;;;;1.00;99.90;;;;;;5099676;28;19924;-66
2022/04/09 00:38:15;;;;;;;;;;;1.00;99.90;;;;;;5106265;28;19920;-66
2022/04/09 00:40:44;;;;;;;;;;;1.00;99.90;;;;;;5107799;28;19934;-67
2022/04/09 00:43:11;;;;;;;;;;;1.00;99.90;;;;;;5109058;28;19920;-67
2022/04/09 00:45:40;;;;;;;;;;;1.00;99.90;;;;;;5101532;28;20022;-67
2022/04/09 00:48:09;;;;;;;;;;;1.10;99.90;;;;;;5096219;28;20418;-67
2022/04/09 00:50:36;;;;;;;;;;;1.00;99.90;;;;;;5097284;28;19959;-67
2022/04/09 00:53:06;;;;;;;;;;;1.00;99.90;;;;;;5088405;28;19920;-67
2022/04/09 00:58:20;;;;;;;;;;;0.90;99.90;;;;;;5101155;28;20579;-66
2022/04/09 01:00:47;;;;;;;;;;;0.80;99.90;;;;;;5106683;28;19924;-67
2022/04/09 01:03:18;;;;;;;;;;;0.80;99.90;;;;;;5110230;28;19926;-67
2022/04/09 01:05:45;;;;;;;;;;;0.80;99.90;;;;;;5101328;28;20014;-67
2022/04/09 01:08:12;;;;;;;;;;;0.80;99.90;;;;;;5105372;28;20027;-66
2022/04/09 01:10:39;;;;;;;;;;;0.90;99.90;;;;;;5092538;28;19934;-67
2022/04/09 01:13:05;;;;;;;;;;;1.00;99.90;;;;;;5102112;28;19926;-67
2022/04/09 01:15:35;;;;;;;;;;;1.10;99.90;;;;;;5101609;28;19920;-67
2022/04/09 01:18:02;;;;;;;;;;;1.10;99.90;;;;;;5094880;28;20010;-67
2022/04/09 01:20:29;;;;;;;;;;;1.10;99.90;;;;;;5102753;28;19923;-67
2022/04/09 01:22:58;;;;;;;;;;;1.20;99.90;;;;;;5104300;28;19924;-67
2022/04/09 01:25:25;;;;;;;;;;;1.20;99.90;;;;;;5106140;28;19919;-66
2022/04/09 01:27:52;;;;;;;;;;;1.30;99.90;;;;;;5091281;28;19941;-66
2022/04/09 01:30:18;;;;;;;;;;;1.30;99.90;;;;;;5108654;28;19998;-67
2022/04/09 01:32:45;;;;;;;;;;;1.30;99.90;;;;;;5108051;28;20362;-67
2022/04/09 01:35:12;;;;;;;;;;;1.30;99.90;;;;;;5103469;28;19966;-67
2022/04/09 01:37:39;;;;;;;;;;;1.30;99.90;;;;;;5104764;28;19999;-67
2022/04/09 01:40:06;;;;;;;;;;;1.20;99.90;;;;;;5108460;28;19919;-67
2022/04/09 01:42:46;;;;;;;;;;;1.10;99.90;;;;;;5102867;28;19997;-67
2022/04/09 01:45:13;;;;;;;;;;;1.20;99.90;;;;;;5108439;28;20038;-67
2022/04/09 01:47:43;;;;;;;;;;;1.20;99.90;;;;;;5099133;28;19921;-67
2022/04/09 01:50:10;;;;;;;;;;;1.20;99.90;;;;;;5106118;28;19924;-67
2022/04/09 01:52:37;;;;;;;;;;;1.10;99.90;;;;;;5109438;28;20466;-67
2022/04/09 01:55:07;;;;;;;;;;;1.10;99.90;;;;;;5112631;28;20011;-67
2022/04/09 01:57:34;;;;;;;;;;;1.10;99.90;;;;;;5106775;28;19920;-67
2022/04/09 02:00:00;;;;;;;;;;;1.10;99.90;;;;;;5101997;28;20330;-67
2022/04/09 02:02:30;;;;;;;;;;;1.00;99.90;;;;;;5108888;28;20457;-67
2022/04/09 02:04:59;;;;;;;;;;;0.90;99.90;;;;;;5101203;27;19927;-67
2022/04/09 02:07:27;;;;;;;;;;;0.80;99.90;;;;;;5107544;28;20007;-67
2022/04/09 02:09:56;;;;;;;;;;;0.80;99.90;;;;;;5102047;28;19920;-67
2022/04/09 02:12:23;;;;;;;;;;;0.70;99.90;;;;;;5105122;28;19920;-67
2022/04/09 02:14:49;;;;;;;;;;;0.80;99.90;;;;;;5086395;28;20023;-67
2022/04/09 02:17:16;;;;;;;;;;;0.80;99.90;;;;;;5103140;28;19959;-67
2022/04/09 02:19:43;;;;;;;;;;;0.90;99.90;;;;;;5109341;28;19962;-67
2022/04/09 02:22:09;;;;;;;;;;;0.90;99.90;;;;;;5105564;28;20018;-67
2022/04/09 02:24:43;;;;;;;;;;;0.90;99.90;;;;;;5082961;28;20367;-67
2022/04/09 02:27:11;;;;;;;;;;;0.90;99.90;;;;;;5107871;28;19923;-68
2022/04/09 02:29:38;;;;;;;;;;;0.90;99.90;;;;;;5101798;28;19942;-67
2022/04/09 02:32:05;;;;;;;;;;;1.00;99.90;;;;;;5108336;28;19920;-67
2022/04/09 02:34:32;;;;;;;;;;;1.00;99.90;;;;;;5090767;28;19975;-67
2022/04/09 02:36:58;;;;;;;;;;;1.20;99.90;;;;;;5099124;28;19978;-67
2022/04/09 02:39:25;;;;;;;;;;;1.30;99.90;;;;;;5102224;28;20561;-68
2022/04/09 02:41:55;;;;;;;;;;;1.40;99.90;;;;;;5106088;28;19928;-67
2022/04/09 02:44:21;;;;;;;;;;;1.50;99.90;;;;;;5109477;28;19924;-68
2022/04/09 02:46:48;;;;;;;;;;;1.50;99.90;;;;;;5100334;28;19928;-67
2022/04/09 02:49:16;;;;;;;;;;;1.50;99.90;;;;;;5091162;28;19919;-67
2022/04/09 02:51:43;;;;;;;;;;;1.60;99.90;;;;;;5101620;28;19920;-67
2022/04/09 02:54:15;;;;;;;;;;;1.60;99.90;;;;;;5104714;28;19920;-68
2022/04/09 02:56:43;;;;;;;;;;;1.60;99.90;;;;;;5092884;28;19946;-67
2022/04/09 02:59:13;;;;;;;;;;;1.70;99.90;;;;;;5105864;28;20289;-68
2022/04/09 03:01:41;;;;;;;;;;;1.70;99.90;;;;;;5098689;28;19928;-68
2022/04/09 03:04:08;;;;;;;;;;;1.60;99.90;;;;;;5106413;28;20374;-68
2022/04/09 03:06:35;;;;;;;;;;;1.60;99.90;;;;;;5106060;28;19950;-68
2022/04/09 03:09:02;;;;;;;;;;;1.60;99.90;;;;;;5102304;28;19919;-68
2022/04/09 03:11:28;;;;;;;;;;;1.70;99.90;;;;;;5093312;28;20026;-67
2022/04/09 03:13:55;;;;;;;;;;;1.60;99.90;;;;;;5109759;28;19990;-68
2022/04/09 03:16:22;;;;;;;;;;;1.50;99.90;;;;;;5096045;28;19998;-67
2022/04/09 03:18:49;;;;;;;;;;;1.50;99.90;;;;;;5103438;28;20325;-68
2022/04/09 03:21:16;;;;;;;;;;;1.50;99.90;;;;;;5105825;28;19920;-67
2022/04/09 03:23:42;;;;;;;;;;;1.60;99.90;;;;;;5095702;28;19949;-68
2022/04/09 03:26:09;;;;;;;;;;;1.70;99.90;;;;;;5102790;28;19975;-68
2022/04/09 03:28:39;;;;;;;;;;;1.70;99.90;;;;;;5101250;28;19968;-68
2022/04/09 03:31:07;;;;;;;;;;;1.80;99.90;;;;;;5105726;28;20291;-68
2022/04/09 03:33:34;;;;;;;;;;;1.80;99.90;;;;;;5101756;28;19941;-69
2022/04/09 03:36:01;;;;;;;;;;;1.90;99.90;;;;;;5088990;28;19926;-68
2022/04/09 03:38:28;;;;;;;;;;;1.80;99.90;;;;;;5105814;28;20378;-68
2022/04/09 03:40:57;;;;;;;;;;;1.90;99.90;;;;;;5102729;27;19924;-68
2022/04/09 03:43:23;;;;;;;;;;;1.90;99.90;;;;;;5104146;28;19970;-68
2022/04/09 03:45:50;;;;;;;;;;;1.90;99.90;;;;;;5102872;28;20027;-69
2022/04/09 03:48:17;;;;;;;;;;;1.70;99.90;;;;;;5109782;28;19920;-69
2022/04/09 03:50:44;;;;;;;;;;;1.60;99.90;;;;;;5106992;28;19919;-69
2022/04/09 03:53:10;;;;;;;;;;;1.50;99.90;;;;;;5096847;28;20466;-69
2022/04/09 03:55:37;;;;;;;;;;;1.50;99.90;;;;;;5091653;28;19926;-69
2022/04/09 03:58:10;;;;;;;;;;;1.50;99.90;;;;;;5105364;28;19920;-70
2022/04/09 04:00:37;;;;;;;;;;;1.50;99.90;;;;;;5104908;28;20309;-67
2022/04/09 04:03:05;;;;;;;;;;;1.60;99.90;;;;;;5110285;28;20006;-69
2022/04/09 04:05:36;;;;;;;;;;;1.60;99.90;;;;;;5105059;28;20571;-68
2022/04/09 04:08:06;;;;;;;;;;;1.50;99.90;;;;;;5103810;28;19973;-68
2022/04/09 04:10:35;;;;;;;;;;;1.50;99.90;;;;;;5099852;28;19973;-69
2022/04/09 04:13:03;;;;;;;;;;;1.50;99.90;;;;;;5103250;28;19967;-69
2022/04/09 04:15:30;;;;;;;;;;;1.50;99.90;;;;;;5103958;28;19928;-69
2022/04/09 04:17:56;;;;;;;;;;;1.50;99.90;;;;;;5079262;27;19919;-69
2022/04/09 04:20:26;;;;;;;;;;;1.60;99.90;;;;;;5103266;27;19967;-69
2022/04/09 04:22:54;;;;;;;;;;;1.60;99.90;;;;;;5076146;28;19924;-69
2022/04/09 04:25:21;;;;;;;;;;;1.60;99.90;;;;;;5105249;28;19919;-69
2022/04/09 04:27:49;;;;;;;;;;;1.60;99.90;;;;;;5097400;28;19965;-69
2022/04/09 04:30:16;;;;;;;;;;;1.60;99.90;;;;;;5102887;28;19978;-69
2022/04/09 04:32:45;;;;;;;;;;;1.70;99.90;;;;;;5103740;28;19919;-69
2022/04/09 04:35:12;;;;;;;;;;;1.70;99.90;;;;;;5104295;28;19926;-70
2022/04/09 04:37:39;;;;;;;;;;;1.60;99.90;;;;;;5091155;28;19920;-70
2022/04/09 04:40:07;;;;;;;;;;;1.40;99.90;;;;;;5091870;28;19950;-70
2022/04/09 04:42:33;;;;;;;;;;;1.30;99.90;;;;;;5097138;28;20382;-70
2022/04/09 04:45:00;;;;;;;;;;;1.20;99.90;;;;;;5111772;28;19919;-70
2022/04/09 04:47:27;;;;;;;;;;;1.10;99.90;;;;;;5102210;28;20010;-70
2022/04/09 04:49:54;;;;;;;;;;;1.00;99.90;;;;;;5109500;28;20394;-70
2022/04/09 04:52:20;;;;;;;;;;;1.00;99.90;;;;;;5095503;28;19924;-70
2022/04/09 04:54:47;;;;;;;;;;;0.90;99.90;;;;;;5072812;28;20343;-70
2022/04/09 04:57:14;;;;;;;;;;;0.80;99.90;;;;;;5100864;28;19967;-70
2022/04/09 04:59:40;;;;;;;;;;;0.80;99.90;;;;;;5091511;28;20250;-70
2022/04/09 05:02:07;;;;;;;;;;;0.80;99.90;;;;;;5100319;28;20579;-70
2022/04/09 05:04:34;;;;;;;;;;;0.80;99.90;;;;;;5106228;28;19919;-70
2022/04/09 05:07:00;;;;;;;;;;;0.80;99.90;;;;;;5111188;28;20014;-70
2022/04/09 05:09:27;;;;;;;;;;;0.80;99.90;;;;;;5105296;28;19926;-70
2022/04/09 05:11:54;;;;;;;;;;;0.90;99.90;;;;;;5101371;28;19920;-70
2022/04/09 05:14:20;;;;;;;;;;;0.90;99.90;;;;;;5103619;28;19923;-70
2022/04/09 05:16:49;;;;;;;;;;;1.00;99.90;;;;;;5090603;28;19931;-70
2022/04/09 05:19:16;;;;;;;;;;;1.10;99.90;;;;;;5086734;28;20006;-70
2022/04/09 05:21:45;;;;;;;;;;;1.20;99.90;;;;;;5095607;28;19920;-70
2022/04/09 05:24:12;;;;;;;;;;;1.20;99.90;;;;;;5078340;28;19920;-70
2022/04/09 05:26:39;;;;;;;;;;;1.30;99.90;;;;;;5093496;28;20031;-71
2022/04/09 05:29:05;;;;;;;;;;;1.30;99.90;;;;;;5095697;28;20023;-70
2022/04/09 05:31:32;;;;;;;;;;;1.30;99.90;;;;;;5098284;28;24075;-70
2022/04/09 05:33:59;;;;;;;;;;;1.30;99.90;;;;;;5096257;28;19934;-71
2022/04/09 05:36:25;;;;;;;;;;;1.20;99.90;;;;;;5107751;28;19927;-71
2022/04/09 05:38:52;;;;;;;;;;;1.30;99.90;;;;;;5099964;28;19981;-71
2022/04/09 05:41:19;;;;;;;;;;;1.30;99.90;;;;;;5103162;28;19919;-73
2022/04/09 05:43:45;;;;;;;;;;;1.30;99.90;;;;;;5099807;28;20398;-73
2022/04/09 05:46:12;;;;;;;;;;;1.40;99.90;;;;;;5086005;28;20409;-71
2022/04/09 05:48:39;;;;;;;;;;;1.50;99.90;;;;;;5095392;28;19955;-71
2022/04/09 05:51:06;;;;;;;;;;;1.50;99.90;;;;;;5083245;28;19975;-71
2022/04/09 05:53:32;;;;;;;;;;;1.60;99.90;;;;;;5089772;28;20392;-71
2022/04/09 05:56:01;;;;;;;;;;;1.70;99.90;;;;;;5100952;28;19927;-71
2022/04/09 05:58:28;;;;;;;;;;;1.80;99.90;;;;;;5098695;28;19995;-72
2022/04/09 06:00:54;;;;;;;;;;;1.90;99.90;;;;;;5102419;28;19926;-70
2022/04/09 06:03:22;;;;;;;;;;;2.00;99.90;;;;;;5099362;28;19957;-71
2022/04/09 06:05:49;;;;;;;;;;;2.20;99.90;;;;;;5098791;28;19924;-71
2022/04/09 06:08:19;;;;;;;;;;;2.50;99.90;;;;;;5101766;28;20400;-72
2022/04/09 06:10:46;;;;;;;;;;;3.20;99.90;;;;;;5109280;28;19960;-72
2022/04/09 06:13:13;;;;;;;;;;;4.20;99.90;;;;;;5104767;28;20011;-71
2022/04/09 06:15:40;;;;;;;;;;;5.00;99.90;;;;;;5105481;28;19927;-71
2022/04/09 06:18:08;;;;;;;;;;;5.70;99.90;;;;;;5103280;28;19920;-71
2022/04/09 06:20:35;;;;;;;;;;;6.60;99.90;;;;;;5103605;28;19919;-72
2022/04/09 06:23:04;;;;;;;;;;;7.20;99.90;;;;;;5103957;28;19967;-71
2022/04/09 06:25:31;;;;;;;;;;;8.00;99.90;;;;;;5106505;27;20010;-70
2022/04/09 06:27:58;;;;;;;;;;;8.40;99.90;;;;;;5109588;28;20027;-69
2022/04/09 06:30:25;;;;;;;;;;;8.00;99.90;;;;;;5107672;28;19926;-70
2022/04/09 06:32:51;;;;;;;;;;;7.50;99.90;;;;;;5102193;28;19967;-70
2022/04/09 06:35:18;;;;;;;;;;;6.90;99.90;;;;;;5103562;28;19920;-70
2022/04/09 06:37:52;;;;;;;;;;;6.10;99.90;;;;;;5095550;28;19928;-70
2022/04/09 06:40:20;;;;;;;;;;;5.60;99.90;;;;;;5082077;28;19920;-70
2022/04/09 06:42:46;;;;;;;;;;;5.20;99.90;;;;;;5105890;28;19953;-71
2022/04/09 06:45:15;;;;;;;;;;;5.00;99.90;;;;;;5098406;28;20015;-70
2022/04/09 06:47:41;;;;;;;;;;;4.80;99.90;;;;;;5104240;28;19942;-70
2022/04/09 06:50:09;;;;;;;;;;;4.60;99.90;;;;;;5105755;28;19924;-71
2022/04/09 06:52:38;;;;;;;;;;;4.60;99.90;;;;;;5109391;28;20259;-70
2022/04/09 06:55:05;;;;;;;;;;;4.90;99.90;;;;;;5098150;28;20011;-71
2022/04/09 06:57:32;;;;;;;;;;;5.20;99.90;;;;;;5111180;27;19927;-71
2022/04/09 06:59:59;;;;;;;;;;;5.20;99.90;;;;;;5093393;28;19970;-71
2022/04/09 07:02:26;;;;;;;;;;;5.30;99.90;;;;;;5104465;28;19928;-71
2022/04/09 07:04:53;;;;;;;;;;;5.40;99.90;;;;;;5107117;28;19920;-72
2022/04/09 07:07:23;;;;;;;;;;;5.50;99.90;;;;;;5105464;27;20438;-71
2022/04/09 07:09:50;;;;;;;;;;;5.60;99.90;;;;;;5100653;28;19924;-71
2022/04/09 07:12:17;;;;;;;;;;;5.50;99.90;;;;;;5100153;28;20023;-71
2022/04/09 07:14:44;;;;;;;;;;;5.50;99.90;;;;;;5099749;28;19920;-71
2022/04/09 07:17:11;;;;;;;;;;;5.40;99.90;;;;;;5105315;28;20049;-70
2022/04/09 07:19:38;;;;;;;;;;;5.40;99.90;;;;;;5096232;28;20382;-71
2022/04/09 07:22:05;;;;;;;;;;;5.90;99.90;;;;;;5096999;28;19927;-71
2022/04/09 07:24:32;;;;;;;;;;;6.60;99.90;;;;;;5107031;28;19926;-71
2022/04/09 07:26:58;;;;;;;;;;;7.10;99.90;;;;;;5109298;28;19967;-71
2022/04/09 07:29:25;;;;;;;;;;;7.10;99.90;;;;;;5102801;28;19926;-72
2022/04/09 07:31:52;;;;;;;;;;;7.40;99.90;;;;;;5103521;28;19958;-71
2022/04/09 07:34:19;;;;;;;;;;;7.60;99.90;;;;;;5101504;28;19920;-71
2022/04/09 07:36:46;;;;;;;;;;;7.30;99.90;;;;;;5106508;28;20007;-70
2022/04/09 07:39:13;;;;;;;;;;;6.90;99.90;;;;;;5109138;28;20640;-72
2022/04/09 07:41:39;;;;;;;;;;;6.60;99.90;;;;;;5092252;28;19920;-71
2022/04/09 07:44:06;;;;;;;;;;;6.50;99.90;;;;;;5077358;28;19943;-71
2022/04/09 07:46:33;;;;;;;;;;;6.50;99.90;;;;;;5097581;28;19927;-71
2022/04/09 07:49:00;;;;;;;;;;;6.50;99.90;;;;;;5083245;27;19920;-70
2022/04/09 07:51:26;;;;;;;;;;;6.40;99.90;;;;;;5087348;28;19920;-71
2022/04/09 07:53:53;;;;;;;;;;;6.50;99.90;;;;;;5086171;28;20712;-71
2022/04/09 07:56:20;;;;;;;;;;;6.50;99.90;;;;;;5089257;28;20011;-71
2022/04/09 07:58:46;;;;;;;;;;;6.40;99.90;;;;;;5109002;28;19972;-71
2022/04/09 08:01:13;;;;;;;;;;;6.40;99.90;;;;;;5098242;28;19924;-71
2022/04/09 08:03:43;;;;;;;;;;;6.40;99.90;;;;;;5106408;28;20477;-72
2022/04/09 08:06:10;;;;;;;;;;;6.40;99.90;;;;;;5103384;28;19984;-72
2022/04/09 08:08:36;;;;;;;;;;;6.50;99.90;;;;;;5104044;28;19942;-77
2022/04/09 08:11:04;;;;;;;;;;;6.60;99.90;;;;;;5101901;28;19963;-81
2022/04/09 08:13:31;;;;;;;;;;;6.70;99.90;;;;;;5112703;27;19955;-82
2022/04/09 08:15:58;;;;;;;;;;;6.80;99.90;;;;;;5109515;28;20301;-82
2022/04/09 08:18:25;;;;;;;;;;;6.90;99.90;;;;;;5086577;28;19926;-80
2022/04/09 08:21:01;;;;;;;;;;;6.90;99.90;;;;;;5106865;28;19920;-77
2022/04/09 08:23:28;;;;;;;;;;;7.00;99.90;;;;;;5106343;28;19930;-79
2022/04/09 08:25:56;;;;;;;;;;;7.20;99.90;;;;;;5099924;28;19919;-69
2022/04/09 08:28:24;;;;;;;;;;;7.40;99.90;;;;;;5100698;28;19920;-69
2022/04/09 08:30:51;;;;;;;;;;;7.30;99.90;;;;;;5100763;28;19939;-69
2022/04/09 08:33:21;;;;;;;;;;;7.20;99.90;;;;;;5105234;28;19919;-68
2022/04/09 08:35:48;;;;;;;;;;;7.00;99.90;;;;;;5105367;28;19926;-69
2022/04/09 08:38:16;;;;;;;;;;;7.00;99.90;;;;;;5106380;28;19923;-69
2022/04/09 08:40:43;;;;;;;;;;;7.10;99.90;;;;;;5097738;28;19930;-70
2022/04/09 08:43:10;;;;;;;;;;;7.20;99.90;;;;;;5102500;28;19923;-71
2022/04/09 08:45:43;;;;;;;;;;;8.10;99.90;;;;;;5095498;28;20370;-70
2022/04/09 08:48:09;;;;;;;;;;;9.00;99.90;;;;;;5096213;28;19967;-70
2022/04/09 08:50:41;;;;;;;;;;;9.20;99.90;;;;;;5108979;28;19927;-71
2022/04/09 08:53:07;;;;;;;;;;;9.00;99.90;;;;;;5110307;28;20019;-79
2022/04/09 08:55:35;;;;;;;;;;;8.60;99.90;;;;;;5101567;28;19920;-72
2022/04/09 08:58:02;;;;;;;;;;;8.40;99.90;;;;;;5089026;28;19967;-73
2022/04/09 09:00:28;;;;;;;;;;;8.40;99.90;;;;;;5109348;28;19937;-73
2022/04/09 09:02:56;;;;;;;;;;;8.80;99.90;;;;;;5103059;28;19924;-72
2022/04/09 09:05:39;;;;;;;;;;;9.00;99.90;;;;;;5102386;28;19980;-72
2022/04/09 09:08:07;;;;;;;;;;;8.80;99.90;;;;;;5092064;28;20031;-72
2022/04/09 09:10:34;;;;;;;;;;;8.40;99.90;;;;;;5088735;28;19934;-73
2022/04/09 09:13:08;;;;;;;;;;;8.40;99.90;;;;;;5073659;28;19970;-73
2022/04/09 09:15:52;;;;;;;;;;;9.00;99.90;;;;;;5102577;28;19920;-73
2022/04/09 09:18:23;;;;;;;;;;;9.90;99.90;;;;;;5080598;28;19919;-73
2022/04/09 09:20:50;;;;;;;;;;;9.90;99.90;;;;;;5106407;28;20443;-73
2022/04/09 09:23:24;;;;;;;;;;;9.90;99.90;;;;;;5076581;28;19927;-73
2022/04/09 09:25:54;;;;;;;;;;;9.80;99.90;;;;;;5088977;28;19928;-73
2022/04/09 09:28:22;;;;;;;;;;;9.90;99.90;;;;;;5100391;28;19973;-80
2022/04/09 09:30:49;;;;;;;;;;;9.50;99.90;;;;;;5106252;28;19999;-75
2022/04/09 09:33:16;;;;;;;;;;;9.20;99.90;;;;;;5094701;28;20029;-74
2022/04/09 09:36:03;;;;;;;;;;;9.20;99.90;;;;;;5109705;28;20362;-75
2022/04/09 09:38:31;;;;;;;;;;;9.40;99.90;;;;;;5103371;28;19937;-75
2022/04/09 09:40:58;;;;;;;;;;;9.50;99.90;;;;;;5093453;28;20050;-74
2022/04/09 09:43:34;;;;;;;;;;;10.00;99.90;;;;;;5098129;28;19920;-76
2022/04/09 09:46:01;;;;;;;;;;;10.10;99.90;;;;;;5099601;28;19932;-75
2022/04/09 09:48:35;;;;;;;;;;;10.10;99.90;;;;;;5096588;28;19927;-76
2022/04/09 09:51:04;;;;;;;;;;;10.10;99.90;;;;;;5101887;28;20370;-75
2022/04/09 09:53:32;;;;;;;;;;;10.10;99.90;;;;;;5110518;28;20362;-76
2022/04/09 09:56:03;;;;;;;;;;;9.90;99.90;;;;;;5116183;28;19998;-76
2022/04/09 09:58:30;;;;;;;;;;;9.90;99.90;;;;;;5107030;28;20015;-77
2022/04/09 10:01:15;;;;;;;;;;;10.10;99.90;;;;;;5104571;28;20360;-78
2022/04/09 10:03:42;;;;;;;;;;;9.90;99.90;;;;;;5101821;28;19974;-77
2022/04/09 10:06:09;;;;;;;;;;;9.90;99.90;;;;;;5110335;28;19919;-79
2022/04/09 10:08:36;;;;;;;;;;;9.80;99.90;;;;;;5108646;28;20003;-79
2022/04/09 10:11:05;;;;;;;;;;;10.70;99.90;;;;;;5099582;28;19920;-79
2022/04/09 10:13:34;;;;;;;;;;;11.30;99.90;;;;;;5095434;28;19920;-78
2022/04/09 10:16:01;;;;;;;;;;;12.10;99.90;;;;;;5085167;28;19924;-77
2022/04/09 10:18:29;;;;;;;;;;;12.70;99.90;;;;;;5108474;28;19934;-79
2022/04/09 10:21:00;;;;;;;;;;;13.50;99.90;;;;;;5107229;28;19926;-80
2022/04/09 10:23:32;;;;;;;;;;;14.40;99.90;;;;;;5115170;28;19959;-78
2022/04/09 10:26:02;;;;;;;;;;;14.80;99.90;;;;;;5106381;28;19924;-79
2022/04/09 10:28:32;;;;;;;;;;;14.50;99.90;;;;;;5100758;28;19973;-80
2022/04/09 10:30:59;;;;;;;;;;;14.50;99.90;;;;;;5111750;28;19927;-79
2022/04/09 10:33:28;;;;;;;;;;;14.10;99.90;;;;;;5095652;28;19920;-78
2022/04/09 10:36:02;;;;;;;;;;;13.00;99.90;;;;;;5112701;28;19966;-80
2022/04/09 10:38:28;;;;;;;;;;;11.80;99.90;;;;;;5088264;28;19930;-80
2022/04/09 10:40:55;;;;;;;;;;;12.50;99.90;;;;;;5106393;28;19932;-81
2022/04/09 10:43:25;;;;;;;;;;;13.40;99.90;;;;;;5100206;28;20019;-75
2022/04/09 10:46:05;;;;;;;;;;;14.20;99.90;;;;;;5100267;28;19975;-79
2022/04/09 10:48:33;;;;;;;;;;;13.90;99.90;;;;;;5089729;28;19924;-81
2022/04/09 10:51:01;;;;;;;;;;;13.30;99.90;;;;;;5105774;28;19993;-80
2022/04/09 10:53:32;;;;;;;;;;;13.80;99.90;;;;;;5104401;27;19959;-78
2022/04/09 10:56:17;;;;;;;;;;;15.30;99.90;;;;;;5099411;28;19924;-78
2022/04/09 10:59:08;;;;;;;;;;;14.90;99.90;;;;;;5100480;28;19919;-79
2022/04/09 11:01:48;;;;;;;;;;;14.00;99.90;;;;;;5103023;28;19919;-78
2022/04/09 11:04:27;;;;;;;;;;;13.30;99.90;;;;;;5115714;27;19923;-73
2022/04/09 11:07:10;;;;;;;;;;;12.30;99.90;;;;;;5103380;28;20302;-79
2022/04/09 11:09:52;;;;;;;;;;;11.80;99.90;;;;;;5104175;28;20019;-79
2022/04/09 11:12:24;;;;;;;;;;;10.40;99.90;;;;;;5110344;28;19927;-80
2022/04/09 11:14:52;;;;;;;;;;;9.70;99.90;;;;;;5113636;27;19992;-80
2022/04/09 11:17:18;;;;;;;;;;;8.70;99.90;;;;;;5099153;28;20014;-79
2022/04/09 11:19:48;;;;;;;;;;;8.20;99.90;;;;;;5109075;28;19987;-80
2022/04/09 11:22:16;;;;;;;;;;;7.80;99.90;;;;;;5113869;28;19927;-76
2022/04/09 11:24:43;;;;;;;;;;;7.10;99.90;;;;;;5099797;28;19927;-79
2022/04/09 11:27:13;;;;;;;;;;;6.40;99.90;;;;;;5104411;28;19927;-77
2022/04/09 11:29:40;;;;;;;;;;;6.00;99.90;;;;;;5108701;28;20002;-77
2022/04/09 11:32:16;;;;;;;;;;;6.00;99.90;;;;;;5086159;28;19924;-79
2022/04/09 11:34:57;;;;;;;;;;;6.10;99.90;;;;;;5108370;27;20816;-78
2022/04/09 11:37:29;;;;;;;;;;;6.20;99.90;;;;;;5100848;28;20006;-76
2022/04/09 11:40:03;;;;;;;;;;;6.40;99.90;;;;;;5108854;28;19967;-77
2022/04/09 11:42:41;;;;;;;;;;;6.40;99.90;;;;;;5103015;28;20000;-78
2022/04/09 11:45:15;;;;;;;;;;;6.50;99.90;;;;;;5098506;28;19938;-79
2022/04/09 11:47:42;;;;;;;;;;;6.40;99.90;;;;;;5098677;27;19995;-79
2022/04/09 11:50:15;;;;;;;;;;;6.40;99.90;;;;;;5102045;28;20006;-76
2022/04/09 11:52:42;;;;;;;;;;;6.00;99.90;;;;;;5102348;28;19982;-79
2022/04/09 11:55:12;;;;;;;;;;;5.70;99.90;;;;;;5099125;27;20014;-78
2022/04/09 11:57:46;;;;;;;;;;;5.40;99.90;;;;;;5094746;27;19987;-78
2022/04/09 12:00:13;;;;;;;;;;;5.30;99.90;;;;;;5107739;27;19920;-78
2022/04/09 12:02:41;;;;;;;;;;;5.40;99.90;;;;;;5093066;28;19924;-79
2022/04/09 12:05:10;;;;;;;;;;;5.60;99.90;;;;;;5107823;28;19924;-79
2022/04/09 12:07:41;;;;;;;;;;;5.70;99.90;;;;;;5106411;28;20045;-78
2022/04/09 12:10:28;;;;;;;;;;;6.00;99.90;;;;;;5103423;28;19920;-79
2022/04/09 12:13:00;;;;;;;;;;;6.80;99.90;;;;;;5089348;28;19974;-80
2022/04/09 12:15:31;;;;;;;;;;;7.70;99.90;;;;;;5100367;28;20011;-80
2022/04/09 12:18:07;;;;;;;;;;;8.40;99.90;;;;;;5102880;28;19958;-80
2022/04/09 12:20:35;;;;;;;;;;;9.10;99.90;;;;;;5099810;27;19924;-79
2022/04/09 12:23:03;;;;;;;;;;;9.80;99.90;;;;;;5108049;28;19928;-75
2022/04/09 12:25:42;;;;;;;;;;;10.50;99.90;;;;;;5105995;28;19923;-76
2022/04/09 12:28:24;;;;;;;;;;;11.00;99.90;;;;;;5107280;27;19920;-76
2022/04/09 12:30:55;;;;;;;;;;;11.10;99.90;;;;;;5082381;28;19920;-76
2022/04/09 12:33:22;;;;;;;;;;;11.30;99.90;;;;;;5096769;28;19929;-75
2022/04/09 12:35:52;;;;;;;;;;;11.40;99.90;;;;;;5098973;28;19982;-75
2022/04/09 12:38:34;;;;;;;;;;;11.60;99.90;;;;;;5108762;28;19962;-75
2022/04/09 12:41:01;;;;;;;;;;;11.90;99.90;;;;;;5101834;28;19920;-75
2022/04/09 12:43:32;;;;;;;;;;;11.80;99.90;;;;;;5088770;28;19992;-72
2022/04/09 12:46:07;;;;;;;;;;;12.00;99.90;;;;;;5095963;28;19934;-74
2022/04/09 12:48:40;;;;;;;;;;;12.30;99.90;;;;;;5093850;28;20007;-74
2022/04/09 12:51:07;;;;;;;;;;;12.40;99.90;;;;;;5106602;28;19965;-75
2022/04/09 12:53:34;;;;;;;;;;;12.80;99.90;;;;;;5107693;28;19919;-74
2022/04/09 12:56:07;;;;;;;;;;;13.10;99.90;;;;;;5100919;28;19928;-75
2022/04/09 12:58:34;;;;;;;;;;;13.10;99.90;;;;;;5101501;28;20047;-74
2022/04/09 13:01:02;;;;;;;;;;;13.10;99.90;;;;;;5100076;28;19928;-74
2022/04/09 13:03:29;;;;;;;;;;;;;;;;;;5098346;28;19993;-72
2022/04/09 13:05:56;;;;;;;;;;;13.80;99.90;;;;;;5080872;28;19927;-72
2022/04/09 13:08:23;;;;;;;;;;;13.80;99.90;;;;;;5103683;27;20014;-73
2022/04/09 13:10:50;;;;;;;;;;;13.80;99.90;;;;;;5079916;28;19920;-72
2022/04/09 13:13:20;;;;;;;;;;;13.50;99.90;;;;;;5103764;28;19928;-72
2022/04/09 13:15:48;;;;;;;;;;;13.20;99.90;;;;;;5102911;28;19919;-75
2022/04/09 13:18:15;;;;;;;;;;;13.20;99.90;;;;;;5099311;28;19953;-73
2022/04/09 13:20:45;;;;;;;;;;;13.20;99.90;;;;;;5080413;28;20006;-73
2022/04/09 13:23:12;;;;;;;;;;;13.60;99.90;;;;;;5099459;28;20417;-73
2022/04/09 13:25:42;;;;;;;;;;;13.60;99.90;;;;;;5097077;28;19924;-73
2022/04/09 13:28:11;;;;;;;;;;;13.20;99.90;;;;;;5102923;28;19919;-72
2022/04/09 13:30:38;;;;;;;;;;;12.70;99.90;;;;;;5084362;28;19920;-74
2022/04/09 13:33:05;;;;;;;;;;;12.30;99.90;;;;;;5097835;28;20435;-74
2022/04/09 13:35:32;;;;;;;;;;;11.80;99.90;;;;;;5094016;28;19919;-73
2022/04/09 13:37:58;;;;;;;;;;;11.40;99.90;;;;;;5102765;28;20374;-73
2022/04/09 13:40:25;;;;;;;;;;;11.10;99.90;;;;;;5104371;28;20044;-72
2022/04/09 13:42:54;;;;;;;;;;;10.90;99.90;;;;;;5099519;28;19955;-72
2022/04/09 13:45:21;;;;;;;;;;;10.90;99.90;;;;;;5102520;28;19966;-73
2022/04/09 13:47:49;;;;;;;;;;;10.50;99.90;;;;;;5088762;28;19966;-74
2022/04/09 13:50:20;;;;;;;;;;;9.90;99.90;;;;;;5094399;28;19924;-75
2022/04/09 13:52:47;;;;;;;;;;;8.40;99.90;;;;;;5105887;28;19923;-77
2022/04/09 13:55:13;;;;;;;;;;;7.30;99.90;;;;;;5105488;28;19924;-79
2022/04/09 13:57:42;;;;;;;;;;;6.40;99.90;;;;;;5093664;28;19958;-76
2022/04/09 14:00:09;;;;;;;;;;;6.00;99.90;;;;;;5090483;28;20034;-74
2022/04/09 14:02:37;;;;;;;;;;;5.40;99.90;;;;;;5099367;28;19930;-72
2022/04/09 14:05:05;;;;;;;;;;;4.90;99.90;;;;;;5099810;28;19920;-71
2022/04/09 14:07:32;;;;;;;;;;;4.60;99.90;;;;;;5085619;28;19920;-71
2022/04/09 14:09:58;;;;;;;;;;;4.70;99.90;;;;;;5095122;28;19920;-71
2022/04/09 14:12:25;;;;;;;;;;;5.00;99.90;;;;;;5095602;28;19955;-71
2022/04/09 14:14:52;;;;;;;;;;;5.40;99.90;;;;;;5097906;28;19923;-71
2022/04/09 14:17:19;;;;;;;;;;;5.80;99.90;;;;;;5104529;28;19920;-72
2022/04/09 14:19:47;;;;;;;;;;;6.00;99.90;;;;;;5095035;28;19998;-71
2022/04/09 14:22:14;;;;;;;;;;;6.10;99.90;;;;;;5099372;28;19934;-72
2022/04/09 14:24:41;;;;;;;;;;;6.30;99.90;;;;;;5093171;28;19963;-71
2022/04/09 14:27:08;;;;;;;;;;;6.50;99.90;;;;;;5110631;28;20014;-72
2022/04/09 14:29:34;;;;;;;;;;;6.60;99.90;;;;;;5108442;27;19920;-71
2022/04/09 14:32:01;;;;;;;;;;;6.80;99.90;;;;;;5103095;28;19928;-70
2022/04/09 14:34:28;;;;;;;;;;;6.80;99.90;;;;;;5105782;27;20306;-71
2022/04/09 14:36:55;;;;;;;;;;;6.80;99.90;;;;;;5103480;28;20703;-71
2022/04/09 14:39:21;;;;;;;;;;;6.80;99.90;;;;;;5084818;28;20017;-71